createdAt,value
2019-02-15T00:02:11.875Z,99.90
2019-02-15T00:04:40.344Z,99.90
2019-02-15T00:07:09.092Z,99.90
2019-02-15T00:09:37.571Z,99.90
2019-02-15T00:12:06.011Z,99.90
2019-02-15T00:14:43.560Z,99.90
2019-02-15T00:17:12.556Z,99.90
2019-02-15T00:19:42.952Z,99.90
2019-02-15T00:22:11.388Z,99.90
2019-02-15T00:24:39.995Z,99.90
2019-02-15T00:27:08.707Z,99.90
2019-02-15T00:29:37.209Z,99.90
2019-02-15T00:32:05.985Z,99.90
2019-02-15T00:34:34.409Z,99.90
2019-02-15T00:37:02.951Z,99.90
2019-02-15T00:39:31.421Z,99.90
2019-02-15T00:41:59.869Z,99.90
2019-02-15T00:44:28.595Z,99.90
2019-02-15T00:47:01.384Z,99.90
2019-02-15T00:49:31.455Z,99.90
2019-02-15T00:52:01.651Z,99.90
2019-02-15T00:54:31.847Z,99.90
2019-02-15T00:57:08.211Z,99.90
2019-02-15T00:59:38.638Z,99.90
2019-02-15T01:02:14.703Z,99.90
2019-02-15T01:04:47.886Z,99.90
2019-02-15T01:07:17.961Z,99.90
2019-02-15T01:09:48.048Z,99.90
2019-02-15T01:12:18.098Z,99.90
2019-02-15T01:14:46.543Z,99.90
2019-02-15T01:17:15.298Z,99.90
2019-02-15T01:19:43.752Z,99.90
2019-02-15T01:22:12.688Z,99.90
2019-02-15T01:24:41.485Z,99.90
2019-02-15T01:27:13.982Z,99.90
2019-02-15T01:29:56.027Z,99.90
2019-02-15T01:32:44.298Z,99.90
2019-02-15T01:35:20.389Z,99.90
2019-02-15T01:37:50.685Z,99.90
2019-02-15T01:40:26.498Z,99.90
2019-02-15T01:43:02.373Z,99.90
2019-02-15T01:45:38.245Z,99.90
2019-02-15T01:48:06.653Z,99.90
2019-02-15T01:50:35.104Z,99.90
2019-02-15T01:53:03.880Z,99.90
2019-02-15T01:55:32.317Z,99.90
2019-02-15T01:58:01.056Z,99.90
2019-02-15T02:00:31.210Z,99.90
2019-02-15T02:02:59.826Z,99.90
2019-02-15T02:05:28.250Z,99.90
2019-02-15T02:07:57.024Z,99.90
2019-02-15T02:10:25.436Z,99.90
2019-02-15T02:12:53.865Z,99.90
2019-02-15T02:15:22.313Z,99.90
2019-02-15T02:17:50.756Z,99.90
2019-02-15T02:20:19.205Z,99.90
2019-02-15T02:22:47.632Z,99.90
2019-02-15T02:25:16.083Z,99.90
2019-02-15T02:27:44.765Z,99.90
2019-02-15T02:30:13.675Z,99.90
2019-02-15T02:32:42.106Z,99.90
2019-02-15T02:35:10.533Z,99.90
2019-02-15T02:37:39.024Z,99.90
2019-02-15T02:40:08.919Z,99.90
2019-02-15T02:42:37.446Z,99.90
2019-02-15T02:45:07.647Z,99.90
2019-02-15T02:47:36.099Z,99.90
2019-02-15T02:50:06.833Z,99.90
2019-02-15T02:52:35.265Z,99.90
2019-02-15T02:55:04.429Z,99.90
2019-02-15T02:57:32.852Z,99.90
2019-02-15T03:00:01.367Z,99.90
2019-02-15T03:02:29.883Z,99.90
2019-02-15T03:04:58.326Z,99.90
2019-02-15T03:07:26.741Z,99.90
2019-02-15T03:09:55.180Z,99.90
2019-02-15T03:12:23.616Z,99.90
2019-02-15T03:14:52.036Z,99.90
2019-02-15T03:17:20.752Z,99.90
2019-02-15T03:19:49.445Z,99.90
2019-02-15T03:22:18.217Z,99.90
2019-02-15T03:24:46.684Z,99.90
2019-02-15T03:27:15.176Z,99.90
2019-02-15T03:29:43.598Z,99.90
2019-02-15T03:32:12.416Z,99.90
2019-02-15T03:34:41.264Z,99.90
2019-02-15T03:37:27.444Z,99.90
2019-02-15T03:39:57.512Z,99.90
2019-02-15T03:42:25.959Z,99.90
2019-02-15T03:44:54.624Z,99.90
2019-02-15T03:47:24.127Z,99.90
2019-02-15T03:49:52.828Z,99.90
2019-02-15T03:52:21.602Z,99.90
2019-02-15T03:54:50.035Z,99.90
2019-02-15T03:57:18.604Z,99.90
2019-02-15T03:59:47.064Z,99.90
2019-02-15T04:02:15.896Z,99.90
2019-02-15T04:04:44.633Z,99.90
2019-02-15T04:07:13.063Z,99.90
2019-02-15T04:09:41.512Z,99.90
2019-02-15T04:12:10.287Z,99.90
2019-02-15T04:14:38.967Z,99.90
2019-02-15T04:17:07.510Z,99.90
2019-02-15T04:19:36.846Z,99.90
2019-02-15T04:22:05.540Z,99.90
2019-02-15T04:24:34.225Z,99.90
2019-02-15T04:27:03.005Z,99.90
2019-02-15T04:29:31.435Z,99.90
2019-02-15T04:31:59.867Z,99.90
2019-02-15T04:34:28.301Z,99.90
2019-02-15T04:36:56.840Z,99.90
2019-02-15T04:39:25.299Z,99.90
2019-02-15T04:41:53.770Z,99.90
2019-02-15T04:44:22.276Z,99.90
2019-02-15T04:46:50.810Z,99.90
2019-02-15T04:49:19.294Z,99.90
2019-02-15T04:51:47.745Z,99.90
2019-02-15T04:54:16.164Z,99.90
2019-02-15T04:56:44.599Z,99.90
2019-02-15T04:59:13.094Z,99.90
2019-02-15T05:01:41.551Z,99.90
2019-02-15T05:04:09.979Z,99.90
2019-02-15T05:06:38.444Z,99.90
2019-02-15T05:09:07.198Z,99.90
2019-02-15T05:11:35.626Z,99.90
2019-02-15T05:14:04.094Z,99.90
2019-02-15T05:16:32.527Z,99.90
2019-02-15T05:19:00.972Z,99.90
2019-02-15T05:21:29.463Z,99.90
2019-02-15T05:23:57.916Z,99.90
2019-02-15T05:26:26.379Z,99.90
2019-02-15T05:28:54.805Z,99.90
2019-02-15T05:31:23.535Z,99.90
2019-02-15T05:33:51.956Z,99.90
2019-02-15T05:36:20.400Z,99.90
2019-02-15T05:38:48.848Z,99.90
2019-02-15T05:41:17.551Z,99.90
2019-02-15T05:43:45.991Z,99.90
2019-02-15T05:46:14.504Z,99.90
2019-02-15T05:48:42.945Z,99.90
2019-02-15T05:51:11.378Z,99.90
2019-02-15T05:53:39.820Z,99.90
2019-02-15T05:56:08.239Z,99.90
2019-02-15T05:58:37.038Z,99.90
2019-02-15T06:01:05.751Z,99.90
2019-02-15T06:03:34.507Z,99.90
2019-02-15T06:06:03.183Z,99.90
2019-02-15T06:08:31.987Z,99.90
2019-02-15T06:11:07.318Z,99.90
2019-02-15T06:13:30.953Z,99.90
2019-02-15T06:15:59.770Z,99.90
2019-02-15T06:18:28.572Z,99.90
2019-02-15T06:20:57.358Z,99.90
2019-02-15T06:23:25.893Z,99.90
2019-02-15T06:25:54.447Z,99.90
2019-02-15T06:28:23.226Z,99.90
2019-02-15T06:30:51.664Z,99.90
2019-02-15T06:33:20.192Z,99.90
2019-02-15T06:35:48.965Z,99.90
2019-02-15T06:38:17.666Z,99.90
2019-02-15T06:40:46.451Z,99.90
2019-02-15T06:43:14.867Z,99.90
2019-02-15T06:45:43.379Z,99.90
2019-02-15T06:48:12.144Z,99.90
2019-02-15T06:50:41.016Z,99.90
2019-02-15T06:53:10.077Z,99.90
2019-02-15T06:55:38.752Z,99.90
2019-02-15T06:58:07.271Z,99.90
2019-02-15T07:00:45.884Z,99.90
2019-02-15T07:03:21.764Z,99.90
2019-02-15T07:05:50.208Z,99.90
2019-02-15T07:08:18.974Z,99.90
2019-02-15T07:10:47.398Z,99.90
2019-02-15T07:13:15.832Z,99.90
2019-02-15T07:15:44.525Z,99.90
2019-02-15T07:18:12.961Z,99.90
2019-02-15T07:20:41.692Z,99.90
2019-02-15T07:23:10.389Z,99.90
2019-02-15T07:25:38.872Z,99.90
2019-02-15T07:28:07.346Z,99.90
2019-02-15T07:30:36.137Z,99.90
2019-02-15T07:33:04.589Z,99.90
2019-02-15T07:35:33.427Z,99.90
2019-02-15T07:38:01.940Z,99.90
2019-02-15T07:40:30.680Z,99.90
2019-02-15T07:42:59.176Z,99.90
2019-02-15T07:45:27.616Z,99.90
2019-02-15T07:47:56.321Z,99.90
2019-02-15T07:50:24.976Z,99.90
2019-02-15T07:52:53.434Z,99.90
2019-02-15T07:55:22.188Z,99.90
2019-02-15T07:57:50.601Z,99.90
2019-02-15T08:00:19.035Z,99.90
2019-02-15T08:02:47.778Z,99.90
2019-02-15T08:05:16.236Z,99.90
2019-02-15T08:07:44.632Z,99.90
2019-02-15T08:10:13.378Z,99.90
2019-02-15T08:12:41.801Z,99.90
2019-02-15T08:15:11.217Z,99.90
2019-02-15T08:17:39.648Z,99.90
2019-02-15T08:20:10.732Z,99.90
2019-02-15T08:22:39.147Z,99.90
2019-02-15T08:25:08.509Z,99.90
2019-02-15T08:27:37.251Z,99.90
2019-02-15T08:30:08.630Z,99.90
2019-02-15T08:32:37.123Z,99.90
2019-02-15T08:35:07.766Z,99.90
2019-02-15T08:37:36.190Z,99.90
2019-02-15T08:40:07.438Z,99.90
2019-02-15T08:42:35.857Z,99.90
2019-02-15T08:45:07.038Z,99.90
2019-02-15T08:47:35.743Z,99.90
2019-02-15T08:50:05.711Z,99.90
2019-02-15T08:52:34.128Z,99.90
2019-02-15T08:55:02.606Z,99.90
2019-02-15T08:57:31.054Z,99.90
2019-02-15T08:59:59.821Z,99.90
2019-02-15T09:02:28.251Z,99.90
2019-02-15T09:04:56.674Z,99.90
2019-02-15T09:07:25.099Z,99.90
2019-02-15T09:09:53.854Z,99.90
2019-02-15T09:12:22.573Z,99.90
2019-02-15T09:14:51.017Z,99.90
2019-02-15T09:17:19.455Z,99.90
2019-02-15T09:19:47.859Z,99.90
2019-02-15T09:22:16.583Z,99.90
2019-02-15T09:24:44.999Z,99.90
2019-02-15T09:27:17.462Z,99.90
2019-02-15T09:29:45.886Z,99.90
2019-02-15T09:32:14.329Z,99.90
2019-02-15T09:34:42.768Z,99.90
2019-02-15T09:37:11.159Z,99.90
2019-02-15T09:39:39.671Z,99.90
2019-02-15T09:42:08.326Z,99.90
2019-02-15T09:44:36.728Z,99.90
2019-02-15T09:47:05.166Z,99.90
2019-02-15T09:49:33.969Z,99.90
2019-02-15T09:52:02.381Z,99.90
2019-02-15T09:54:30.805Z,99.90
2019-02-15T09:56:59.221Z,99.90
2019-02-15T09:59:27.689Z,99.90
2019-02-15T10:01:56.093Z,99.90
2019-02-15T10:04:24.787Z,99.90
2019-02-15T10:06:53.493Z,99.90
2019-02-15T10:09:22.216Z,99.90
2019-02-15T10:11:50.651Z,99.90
2019-02-15T10:14:19.327Z,99.90
2019-02-15T10:16:48.062Z,99.90
2019-02-15T10:19:22.456Z,99.90
2019-02-15T10:21:46.711Z,99.90
2019-02-15T10:24:15.395Z,99.90
2019-02-15T10:26:43.810Z,99.90
2019-02-15T10:29:12.230Z,99.90
2019-02-15T10:31:40.661Z,99.90
2019-02-15T10:34:09.325Z,99.90
2019-02-15T10:36:38.376Z,99.90
2019-02-15T10:39:07.312Z,99.90
2019-02-15T10:41:36.060Z,99.90
2019-02-15T10:44:04.542Z,99.90
2019-02-15T10:46:37.783Z,99.90
2019-02-15T10:49:03.118Z,99.90
2019-02-15T10:51:31.831Z,99.90
2019-02-15T10:54:00.246Z,99.90
2019-02-15T10:56:28.707Z,99.90
2019-02-15T10:58:57.170Z,99.90
2019-02-15T11:01:25.579Z,99.90
2019-02-15T11:03:53.999Z,99.90
2019-02-15T11:06:22.664Z,99.90
2019-02-15T11:08:51.112Z,99.90
2019-02-15T11:11:19.536Z,99.90
2019-02-15T11:13:48.057Z,99.90
2019-02-15T11:16:16.502Z,99.90
2019-02-15T11:18:44.918Z,99.90
2019-02-15T11:21:13.333Z,99.90
2019-02-15T11:23:41.775Z,99.90
2019-02-15T11:26:10.522Z,99.90
2019-02-15T11:28:39.218Z,99.90
2019-02-15T11:31:07.948Z,99.90
2019-02-15T11:33:36.409Z,99.90
2019-02-15T11:36:04.821Z,99.90
2019-02-15T11:38:33.248Z,99.90
2019-02-15T11:41:10.759Z,99.90
2019-02-15T11:43:32.133Z,98.80
2019-02-15T11:46:00.811Z,94.70
2019-02-15T11:48:29.584Z,91.80
2019-02-15T11:50:58.154Z,86.80
2019-02-15T11:53:26.628Z,78.80
2019-02-15T11:55:55.056Z,75.30
2019-02-15T11:58:23.532Z,73.70
2019-02-15T12:00:52.045Z,66.90
2019-02-15T12:03:20.775Z,65.10
2019-02-15T12:05:49.497Z,61.90
2019-02-15T12:08:17.921Z,59.80
2019-02-15T12:10:46.349Z,56.70
2019-02-15T12:13:15.092Z,55.50
2019-02-15T12:15:43.528Z,56.10
2019-02-15T12:18:12.024Z,53.70
2019-02-15T12:20:40.414Z,53.90
2019-02-15T12:23:08.849Z,53.30
2019-02-15T12:25:37.653Z,52.10
2019-02-15T12:28:06.069Z,50.70
2019-02-15T12:30:34.505Z,50.10
2019-02-15T12:33:02.910Z,49.80
2019-02-15T12:35:31.347Z,48.50
2019-02-15T12:37:59.747Z,47.60
2019-02-15T12:40:28.193Z,45.50
2019-02-15T12:42:56.641Z,45.30
2019-02-15T12:45:25.073Z,45.20
2019-02-15T12:47:53.482Z,46.40
2019-02-15T12:50:21.898Z,45.80
2019-02-15T12:52:50.597Z,45.00
2019-02-15T12:55:19.035Z,44.10
2019-02-15T12:57:47.454Z,42.50
2019-02-15T13:00:17.034Z,42.60
2019-02-15T13:02:45.466Z,42.00
2019-02-15T13:05:14.648Z,42.90
2019-02-15T13:07:43.082Z,41.50
2019-02-15T13:10:26.270Z,41.40
2019-02-15T13:12:54.694Z,41.10
2019-02-15T13:15:23.110Z,40.50
2019-02-15T13:17:51.543Z,39.90
2019-02-15T13:20:20.039Z,40.80
2019-02-15T13:22:51.639Z,39.30
2019-02-15T13:25:20.323Z,38.60
2019-02-15T13:27:49.071Z,38.70
2019-02-15T13:30:17.491Z,38.10
2019-02-15T13:32:46.267Z,38.10
2019-02-15T13:35:24.453Z,37.90
2019-02-15T13:37:53.386Z,37.50
2019-02-15T13:40:21.812Z,38.10
2019-02-15T13:42:50.278Z,37.60
2019-02-15T13:45:18.761Z,37.80
2019-02-15T13:47:47.210Z,36.40
2019-02-15T13:50:16.288Z,36.70
2019-02-15T13:52:44.714Z,35.80
2019-02-15T13:55:13.151Z,35.50
2019-02-15T13:57:41.627Z,35.00
2019-02-15T14:00:12.288Z,35.20
2019-02-15T14:02:40.774Z,35.30
2019-02-15T14:05:10.935Z,34.80
2019-02-15T14:07:39.365Z,36.00
2019-02-15T14:10:10.793Z,35.30
2019-02-15T14:12:39.607Z,35.20
2019-02-15T14:15:09.943Z,34.40
2019-02-15T14:17:45.338Z,34.20
2019-02-15T14:20:11.046Z,33.90
2019-02-15T14:22:39.467Z,34.50
2019-02-15T14:25:10.261Z,33.90
2019-02-15T14:27:38.931Z,33.80
2019-02-15T14:30:10.187Z,33.70
2019-02-15T14:32:38.930Z,33.20
2019-02-15T14:35:09.823Z,32.80
2019-02-15T14:37:38.237Z,33.40
2019-02-15T14:40:11.710Z,33.20
2019-02-15T14:42:40.118Z,32.90
2019-02-15T14:45:10.566Z,32.60
2019-02-15T14:47:39.030Z,32.60
2019-02-15T14:50:09.354Z,32.50
2019-02-15T14:52:37.841Z,32.70
2019-02-15T14:55:08.556Z,33.00
2019-02-15T14:57:37.324Z,32.70
2019-02-15T15:00:09.084Z,32.80
2019-02-15T15:02:37.594Z,33.30
2019-02-15T15:05:07.190Z,32.10
2019-02-15T15:07:35.602Z,32.00
2019-02-15T15:10:05.979Z,31.70
2019-02-15T15:12:34.415Z,31.80
2019-02-15T15:15:03.416Z,32.20
2019-02-15T15:17:32.124Z,32.10
2019-02-15T15:20:00.554Z,33.00
2019-02-15T15:22:28.964Z,32.80
2019-02-15T15:24:57.470Z,33.90
2019-02-15T15:27:25.872Z,35.00
2019-02-15T15:29:54.313Z,34.60
2019-02-15T15:32:22.737Z,35.50
2019-02-15T15:34:51.187Z,36.40
2019-02-15T15:37:19.618Z,36.70
2019-02-15T15:39:48.210Z,37.20
2019-02-15T15:42:16.642Z,37.30
2019-02-15T15:44:45.398Z,37.80
2019-02-15T15:47:14.104Z,37.60
2019-02-15T15:49:42.815Z,38.30
2019-02-15T15:52:11.242Z,39.10
2019-02-15T15:54:39.666Z,39.10
2019-02-15T15:57:08.101Z,39.10
2019-02-15T15:59:36.849Z,39.40
2019-02-15T16:02:05.374Z,39.70
2019-02-15T16:04:33.777Z,40.20
2019-02-15T16:07:02.466Z,40.70
2019-02-15T16:09:31.176Z,40.40
2019-02-15T16:11:59.614Z,41.70
2019-02-15T16:17:57.344Z,42.60
2019-02-15T16:20:25.765Z,44.00
2019-02-15T16:22:54.487Z,44.60
2019-02-15T16:25:23.266Z,45.60
2019-02-15T16:27:51.720Z,46.50
2019-02-15T16:30:22.138Z,47.20
2019-02-15T16:32:50.855Z,47.80
2019-02-15T16:35:19.552Z,48.20
2019-02-15T16:37:48.655Z,49.20
2019-02-15T16:40:19.058Z,49.40
2019-02-15T16:42:47.533Z,49.90
2019-02-15T16:45:16.599Z,49.90
2019-02-15T16:47:45.291Z,50.70
2019-02-15T16:50:14.100Z,51.70
2019-02-15T16:52:42.660Z,53.10
2019-02-15T16:55:13.126Z,53.20
2019-02-15T16:57:41.683Z,54.20
2019-02-15T17:00:14.935Z,54.70
2019-02-15T17:02:43.349Z,55.60
2019-02-15T17:05:12.463Z,56.00
2019-02-15T17:07:40.918Z,57.00
2019-02-15T17:10:11.155Z,57.70
2019-02-15T17:12:39.585Z,58.80
2019-02-15T17:15:11.097Z,59.40
2019-02-15T17:17:39.522Z,61.70
2019-02-15T17:20:09.593Z,62.80
2019-02-15T17:22:38.089Z,62.30
2019-02-15T17:25:09.643Z,64.70
2019-02-15T17:27:38.071Z,67.20
2019-02-15T17:30:09.623Z,69.80
2019-02-15T17:32:38.055Z,70.30
2019-02-15T17:35:08.946Z,73.80
2019-02-15T17:37:37.350Z,74.30
2019-02-15T17:40:16.049Z,75.30
2019-02-15T17:42:44.762Z,80.00
2019-02-15T17:45:13.359Z,81.20
2019-02-15T17:47:41.775Z,83.60
2019-02-15T17:50:11.587Z,84.80
2019-02-15T17:52:40.311Z,86.20
2019-02-15T17:55:10.348Z,89.20
2019-02-15T17:57:39.092Z,84.30
2019-02-15T18:00:10.802Z,89.00
2019-02-15T18:02:39.300Z,83.50
2019-02-15T18:05:11.331Z,86.30
2019-02-15T18:07:40.107Z,80.90
2019-02-15T18:10:08.809Z,83.90
2019-02-15T18:12:37.253Z,86.60
2019-02-15T18:15:06.495Z,85.20
2019-02-15T18:17:34.916Z,90.50
2019-02-15T18:20:04.277Z,89.70
2019-02-15T18:22:33.003Z,91.90
2019-02-15T18:25:01.447Z,85.40
2019-02-15T18:28:14.975Z,86.30
2019-02-15T18:33:37.692Z,89.90
2019-02-15T18:36:06.175Z,91.00
2019-02-15T18:38:34.615Z,92.00
2019-02-15T18:41:03.111Z,91.70
2019-02-15T18:43:31.536Z,91.80
2019-02-15T18:45:59.964Z,92.30
2019-02-15T18:48:28.476Z,92.90
2019-02-15T18:50:56.901Z,93.10
2019-02-15T18:53:25.351Z,92.80
2019-02-15T18:55:54.089Z,94.60
2019-02-15T18:58:22.523Z,91.00
2019-02-15T19:00:51.272Z,94.50
2019-02-15T19:03:20.081Z,92.70
2019-02-15T19:05:48.500Z,92.60
2019-02-15T19:08:16.956Z,91.70
2019-02-15T19:10:45.697Z,92.90
2019-02-15T19:13:15.666Z,93.00
2019-02-15T19:15:45.641Z,94.20
2019-02-15T19:18:15.622Z,95.80
2019-02-15T19:20:45.595Z,95.90
2019-02-15T19:23:15.603Z,96.70
2019-02-15T19:25:45.574Z,96.40
2019-02-15T19:28:15.835Z,97.10
2019-02-15T19:30:45.879Z,97.80
2019-02-15T19:33:15.416Z,98.50
2019-02-15T19:35:43.865Z,96.40
2019-02-15T19:38:12.347Z,98.10
2019-02-15T19:40:41.207Z,98.90
2019-02-15T19:43:13.465Z,97.90
2019-02-15T19:45:42.675Z,99.00
2019-02-15T19:48:11.108Z,99.50
2019-02-15T19:50:39.554Z,99.30
2019-02-15T19:53:08.324Z,99.90
2019-02-15T19:55:36.763Z,98.60
2019-02-15T19:58:05.214Z,99.70
2019-02-15T20:00:35.514Z,99.90
2019-02-15T20:03:04.091Z,99.90
2019-02-15T20:05:33.721Z,99.90
2019-02-15T20:08:02.492Z,99.90
2019-02-15T20:10:31.032Z,99.90
2019-02-15T20:13:00.915Z,99.90
2019-02-15T20:15:29.587Z,98.40
2019-02-15T20:17:58.367Z,99.90
2019-02-15T20:20:26.777Z,98.20
2019-02-15T20:22:55.220Z,97.50
2019-02-15T20:25:24.023Z,97.40
2019-02-15T20:27:52.499Z,99.30
2019-02-15T20:30:22.584Z,99.90
2019-02-15T20:32:51.028Z,99.00
2019-02-15T20:35:19.494Z,99.70
2019-02-15T20:37:48.151Z,99.90
2019-02-15T20:40:16.708Z,99.50
2019-02-15T20:42:45.174Z,99.10
2019-02-15T20:45:23.540Z,99.90
2019-02-15T20:47:52.017Z,99.90
2019-02-15T20:50:21.346Z,99.90
2019-02-15T20:52:49.834Z,99.90
2019-02-15T20:55:19.860Z,99.90
2019-02-15T20:57:48.311Z,99.90
2019-02-15T21:00:24.788Z,99.90
2019-02-15T21:02:53.544Z,99.90
2019-02-15T21:05:21.995Z,99.90
2019-02-15T21:07:50.458Z,99.90
2019-02-15T21:10:18.866Z,99.90
2019-02-15T21:12:47.835Z,99.90
2019-02-15T21:15:16.521Z,99.90
2019-02-15T21:17:44.965Z,99.90
2019-02-15T21:20:15.395Z,99.90
2019-02-15T21:22:43.837Z,99.90
2019-02-15T21:25:14.421Z,99.90
2019-02-15T21:27:42.862Z,99.90
2019-02-15T21:30:15.977Z,99.90
2019-02-15T21:32:45.416Z,99.90
2019-02-15T21:35:13.872Z,99.90
2019-02-15T21:37:42.646Z,99.90
2019-02-15T21:40:15.991Z,99.90
2019-02-15T21:42:45.585Z,99.90
2019-02-15T21:45:14.816Z,99.90
2019-02-15T21:47:43.338Z,99.90
2019-02-15T21:50:17.029Z,99.90
2019-02-15T21:52:45.116Z,99.90
2019-02-15T21:55:15.410Z,99.90
2019-02-15T21:57:43.914Z,99.90
2019-02-15T22:00:15.463Z,99.90
2019-02-15T22:02:44.251Z,99.90
2019-02-15T22:05:13.062Z,99.90
2019-02-15T22:07:42.760Z,99.90
2019-02-15T22:10:11.190Z,99.90
2019-02-15T22:12:39.635Z,99.90
2019-02-15T22:15:13.705Z,99.90
2019-02-15T22:17:43.427Z,99.90
2019-02-15T22:20:14.939Z,99.90
2019-02-15T22:22:44.432Z,99.90
2019-02-15T22:25:14.405Z,99.90
2019-02-15T22:27:42.867Z,99.90
2019-02-15T22:30:14.773Z,99.90
2019-02-15T22:32:43.539Z,99.90
2019-02-15T22:35:14.283Z,99.90
2019-02-15T22:37:42.709Z,99.90
2019-02-15T22:40:34.075Z,99.90
2019-02-15T22:43:11.378Z,99.90
2019-02-15T22:45:39.862Z,99.90
2019-02-15T22:48:08.623Z,99.90
2019-02-15T22:50:37.123Z,99.90
2019-02-15T22:53:05.881Z,99.90
2019-02-15T22:55:34.308Z,99.90
2019-02-15T22:58:04.525Z,99.90
2019-02-15T23:00:40.737Z,99.90
2019-02-15T23:03:09.574Z,99.90
2019-02-15T23:05:38.325Z,99.90
2019-02-15T23:08:07.008Z,99.90
2019-02-15T23:10:35.495Z,99.90
2019-02-15T23:13:04.804Z,99.90
2019-02-15T23:15:33.217Z,99.90
2019-02-15T23:18:01.848Z,99.90
2019-02-15T23:20:30.409Z,99.90
2019-02-15T23:22:58.893Z,99.90
2019-02-15T23:25:27.848Z,99.90
2019-02-15T23:27:56.261Z,99.90
2019-02-15T23:30:24.689Z,99.90
2019-02-15T23:32:53.378Z,99.90
2019-02-15T23:35:21.799Z,99.90
2019-02-15T23:37:50.239Z,99.90
2019-02-15T23:40:19.032Z,99.90
2019-02-15T23:42:47.476Z,99.90
2019-02-15T23:45:15.900Z,99.90
2019-02-15T23:47:45.059Z,99.90
2019-02-15T23:50:15.164Z,99.90
2019-02-15T23:52:45.423Z,99.90
2019-02-15T23:55:14.178Z,99.90
2019-02-15T23:57:44.241Z,99.90
